Time;durP1;ratioP1;P1;durP2;ratioP2;P2;SDS_P1;SDS_P2;PMS_P1;PMS_P2;Temp;Humidity;BMP_temperature;BMP_pressure;BME280_temperature;BME280_humidity;BME280_pressure;Samples;Min_cycle;Max_cycle;Signal;HPM_P1;HPM_P2
2023/06/09 00:01:18;;;;;;;7.90;5.60;;;;;;;-128.00;-1.00;-1.00;98000;295;1003962;-34
2023/06/09 00:03:46;;;;;;;7.80;6.10;;;;;;;-128.00;-1.00;-1.00;97868;295;1004656;-35
2023/06/09 00:06:13;;;;;;;10.10;8.10;;;;;;;-128.00;-1.00;-1.00;97886;288;1003424;-33
2023/06/09 00:08:38;;;;;;;10.50;8.60;;;;;;;-128.00;-1.00;-1.00;97913;295;1003699;-36
2023/06/09 00:11:04;;;;;;;7.80;5.80;;;;;;;-128.00;-1.00;-1.00;97909;295;1004362;-33
2023/06/09 00:13:29;;;;;;;9.60;5.10;;;;;;;-128.00;-1.00;-1.00;97907;295;1003017;-31
2023/06/09 00:15:55;;;;;;;8.20;6.90;;;;;;;-128.00;-1.00;-1.00;97806;295;1002594;-34
2023/06/09 00:18:24;;;;;;;7.00;5.50;;;;;;;-128.00;-1.00;-1.00;97862;295;1003443;-30
2023/06/09 00:20:50;;;;;;;12.30;7.20;;;;;;;-128.00;-1.00;-1.00;97848;295;1003305;-29
2023/06/09 00:23:16;;;;;;;7.30;5.20;;;;;;;-128.00;-1.00;-1.00;97882;295;1003471;-30
2023/06/09 00:25:42;;;;;;;4.50;4.10;;;;;;;-128.00;-1.00;-1.00;97789;295;1003428;-30
2023/06/09 00:28:09;;;;;;;9.60;7.00;;;;;;;-128.00;-1.00;-1.00;97834;295;1003171;-29
2023/06/09 00:30:35;;;;;;;6.50;5.40;;;;;;;-128.00;-1.00;-1.00;97909;295;1004699;-32
2023/06/09 01:12:40;;;;;;;8.60;7.70;;;;;;;-99.84;19.20;19840.48;61028;284;7504092;-34
2023/06/09 01:15:17;;;;;;;8.50;6.70;;;;;;;-128.00;-1.00;-1.00;18098;288;7506416;-30
2023/06/09 01:17:44;;;;;;;8.30;7.30;;;;;;;-128.00;-1.00;-1.00;18463;297;7504336;-35
2023/06/09 01:20:11;;;;;;;9.30;7.00;;;;;;;-128.00;-1.00;-1.00;18459;320;7504297;-31
2023/06/09 01:22:52;;;;;;;10.50;7.00;;;;;;;-128.00;-1.00;-1.00;18474;296;7507007;-30
2023/06/09 01:25:34;;;;;;;8.90;7.20;;;;;;;-128.00;-1.00;-1.00;18505;312;7506269;-30
2023/06/09 01:28:16;;;;;;;9.90;8.10;;;;;;;-128.00;-1.00;-1.00;18473;296;7504218;-30
2023/06/09 01:30:42;;;;;;;6.10;5.50;;;;;;;-128.00;-1.00;-1.00;18483;285;7504788;-34
2023/06/09 01:33:13;;;;;;;5.30;4.20;;;;;;;-128.00;-1.00;-1.00;18508;297;7505808;-34
2023/06/09 01:35:39;;;;;;;8.80;7.20;;;;;;;-128.00;-1.00;-1.00;18463;285;7505122;-34
2023/06/09 01:38:06;;;;;;;6.90;6.20;;;;;;;-128.00;-1.00;-1.00;18470;285;7506446;-35
2023/06/09 01:40:31;;;;;;;9.50;7.60;;;;;;;-128.00;-1.00;-1.00;18453;297;7504831;-35
2023/06/09 01:42:59;;;;;;;8.70;6.90;;;;;;;-128.00;-1.00;-1.00;18465;297;7505976;-35
2023/06/09 01:45:25;;;;;;;7.80;7.20;;;;;;;-128.00;-1.00;-1.00;18478;285;7506277;-34
2023/06/09 01:47:51;;;;;;;7.30;6.50;;;;;;;-128.00;-1.00;-1.00;18449;298;7505166;-35
2023/06/09 01:50:22;;;;;;;9.20;6.80;;;;;;;-128.00;-1.00;-1.00;18475;289;7504590;-35
2023/06/09 01:53:08;;;;;;;7.00;4.60;;;;;;;-128.00;-1.00;-1.00;18493;289;7505004;-31
2023/06/09 01:55:38;;;;;;;5.00;4.50;;;;;;;-128.00;-1.00;-1.00;18501;285;7504738;-35
2023/06/09 01:58:09;;;;;;;10.80;6.70;;;;;;;-128.00;-1.00;-1.00;18496;300;7504593;-31
2023/06/09 02:00:35;;;;;;;5.00;3.50;;;;;;;-128.00;-1.00;-1.00;18464;285;7505022;-31
2023/06/09 02:03:01;;;;;;;4.80;4.30;;;;;;;-128.00;-1.00;-1.00;18473;297;7505270;-34
2023/06/09 02:05:27;;;;;;;6.90;6.20;;;;;;;-128.00;-1.00;-1.00;18459;289;7506279;-32
2023/06/09 02:07:53;;;;;;;7.50;6.80;;;;;;;-128.00;-1.00;-1.00;18458;289;7505018;-31
2023/06/09 02:10:20;;;;;;;6.40;5.80;;;;;;;-128.00;-1.00;-1.00;18468;297;7504806;-33
2023/06/09 02:12:46;;;;;;;8.40;7.60;;;;;;;-128.00;-1.00;-1.00;18470;289;7504321;-31
2023/06/09 02:15:12;;;;;;;6.60;6.00;;;;;;;-128.00;-1.00;-1.00;18470;348;7506499;-34
2023/06/09 02:17:39;;;;;;;7.20;5.90;;;;;;;-128.00;-1.00;-1.00;18453;297;7506070;-35
2023/06/09 02:20:08;;;;;;;7.00;5.00;;;;;;;-128.00;-1.00;-1.00;18460;296;7504569;-31
2023/06/09 02:22:35;;;;;;;7.30;6.50;;;;;;;-128.00;-1.00;-1.00;18492;297;7504378;-31
2023/06/09 02:25:01;;;;;;;7.90;7.10;;;;;;;-128.00;-1.00;-1.00;18477;327;7504589;-35
2023/06/09 02:27:27;;;;;;;7.50;6.70;;;;;;;-128.00;-1.00;-1.00;18493;289;7504636;-31
2023/06/09 02:29:53;;;;;;;6.40;5.80;;;;;;;-128.00;-1.00;-1.00;18875;297;7504800;-31
2023/06/09 02:32:20;;;;;;;14.90;9.50;;;;;;;-128.00;-1.00;-1.00;18879;296;7504521;-35
2023/06/09 02:34:45;;;;;;;8.10;7.30;;;;;;;-128.00;-1.00;-1.00;18480;296;7504568;-31
2023/06/09 02:37:12;;;;;;;10.30;9.20;;;;;;;-128.00;-1.00;-1.00;18880;296;7504317;-35
2023/06/09 02:39:38;;;;;;;7.80;6.50;;;;;;;-128.00;-1.00;-1.00;18883;289;7504437;-34
2023/06/09 02:42:05;;;;;;;8.20;7.20;;;;;;;-128.00;-1.00;-1.00;18867;297;7504409;-32
2023/06/09 02:44:32;;;;;;;9.90;7.20;;;;;;;-128.00;-1.00;-1.00;18473;348;7504625;-36
2023/06/09 02:46:59;;;;;;;7.70;6.90;;;;;;;-128.00;-1.00;-1.00;18449;297;7506486;-33
2023/06/09 02:49:24;;;;;;;19.60;10.10;;;;;;;-128.00;-1.00;-1.00;18484;289;7504618;-33
2023/06/09 02:51:50;;;;;;;13.40;9.70;;;;;;;-128.00;-1.00;-1.00;18865;337;7505067;-32
2023/06/09 02:54:17;;;;;;;10.10;7.80;;;;;;;-128.00;-1.00;-1.00;18857;297;7504803;-35
2023/06/09 02:56:43;;;;;;;7.50;6.80;;;;;;;-128.00;-1.00;-1.00;18853;296;7504772;-36
2023/06/09 02:59:10;;;;;;;11.10;9.40;;;;;;;-128.00;-1.00;-1.00;18855;296;7504304;-38
2023/06/09 03:01:36;;;;;;;15.30;8.70;;;;;;;-128.00;-1.00;-1.00;18474;289;7504341;-37
2023/06/09 03:04:07;;;;;;;10.20;9.00;;;;;;;-128.00;-1.00;-1.00;18480;296;7506725;-36
2023/06/09 03:06:33;;;;;;;10.60;9.30;;;;;;;-128.00;-1.00;-1.00;18486;285;7505936;-32
2023/06/09 03:09:01;;;;;;;13.20;10.30;;;;;;;-128.00;-1.00;-1.00;18475;348;7505212;-32
2023/06/09 03:11:26;;;;;;;9.10;7.20;;;;;;;-128.00;-1.00;-1.00;18445;297;7504946;-33
2023/06/09 03:13:52;;;;;;;10.50;9.30;;;;;;;-128.00;-1.00;-1.00;18843;289;7505135;-36
2023/06/09 03:16:19;;;;;;;26.30;19.20;;;;;;;-128.00;-1.00;-1.00;18869;289;7504421;-32
2023/06/09 03:18:46;;;;;;;18.70;11.80;;;;;;;-128.00;-1.00;-1.00;18477;285;7505920;-33
2023/06/09 03:21:13;;;;;;;10.50;9.30;;;;;;;-128.00;-1.00;-1.00;18464;348;7504772;-33
2023/06/09 03:23:39;;;;;;;7.60;6.20;;;;;;;-128.00;-1.00;-1.00;18476;297;7504662;-36
2023/06/09 03:26:05;;;;;;;7.80;5.70;;;;;;;-128.00;-1.00;-1.00;18449;296;7504813;-36
2023/06/09 03:28:30;;;;;;;6.60;6.00;;;;;;;-128.00;-1.00;-1.00;18456;285;7504268;-32
2023/06/09 03:30:56;;;;;;;8.10;6.70;;;;;;;-128.00;-1.00;-1.00;18878;289;7505071;-35
2023/06/09 03:33:24;;;;;;;11.10;9.20;;;;;;;-128.00;-1.00;-1.00;18858;289;7504556;-33
2023/06/09 03:35:50;;;;;;;8.30;7.30;;;;;;;-128.00;-1.00;-1.00;18461;297;7504372;-31
2023/06/09 03:38:16;;;;;;;13.40;8.40;;;;;;;-128.00;-1.00;-1.00;18464;289;7504760;-32
2023/06/09 03:40:42;;;;;;;14.20;10.50;;;;;;;-128.00;-1.00;-1.00;18472;348;7504672;-36
2023/06/09 03:43:10;;;;;;;14.00;10.60;;;;;;;-128.00;-1.00;-1.00;18843;319;7505613;-35
2023/06/09 03:45:37;;;;;;;10.90;9.70;;;;;;;-128.00;-1.00;-1.00;18441;297;7504572;-36
2023/06/09 03:48:05;;;;;;;16.10;8.30;;;;;;;-128.00;-1.00;-1.00;18483;337;7504312;-37
2023/06/09 03:50:31;;;;;;;10.30;9.10;;;;;;;-128.00;-1.00;-1.00;18489;296;7504043;-32
2023/06/09 03:52:56;;;;;;;14.10;9.90;;;;;;;-128.00;-1.00;-1.00;18445;297;7504306;-36
2023/06/09 03:55:24;;;;;;;14.20;10.30;;;;;;;-128.00;-1.00;-1.00;18859;297;7504136;-37
2023/06/09 03:57:50;;;;;;;13.00;11.00;;;;;;;-128.00;-1.00;-1.00;18475;297;7506000;-35
2023/06/09 04:00:16;;;;;;;19.50;11.40;;;;;;;-128.00;-1.00;-1.00;18488;320;7506204;-32
2023/06/09 04:02:42;;;;;;;5.30;4.90;;;;;;;-128.00;-1.00;-1.00;18488;308;7504341;-32
2023/06/09 04:05:08;;;;;;;10.30;8.60;;;;;;;-128.00;-1.00;-1.00;18454;297;7505029;-32
2023/06/09 04:07:33;;;;;;;13.30;11.30;;;;;;;-128.00;-1.00;-1.00;18447;296;7504908;-35
2023/06/09 04:10:00;;;;;;;10.40;8.30;;;;;;;-128.00;-1.00;-1.00;18864;297;7504281;-32
2023/06/09 04:12:26;;;;;;;10.90;9.70;;;;;;;-128.00;-1.00;-1.00;18451;296;7504987;-32
2023/06/09 04:14:52;;;;;;;11.00;9.30;;;;;;;-128.00;-1.00;-1.00;18447;285;7505630;-35
2023/06/09 04:17:18;;;;;;;14.20;11.20;;;;;;;-128.00;-1.00;-1.00;18438;341;7506123;-33
2023/06/09 04:19:44;;;;;;;14.50;8.70;;;;;;;-128.00;-1.00;-1.00;18490;285;7505578;-33
2023/06/09 04:22:10;;;;;;;8.30;7.40;;;;;;;-128.00;-1.00;-1.00;18483;297;7506289;-36
2023/06/09 04:24:36;;;;;;;8.90;8.10;;;;;;;-128.00;-1.00;-1.00;18462;285;7504493;-33
2023/06/09 04:27:03;;;;;;;13.30;9.80;;;;;;;-128.00;-1.00;-1.00;18451;285;7504754;-32
2023/06/09 04:29:32;;;;;;;10.00;9.00;;;;;;;-128.00;-1.00;-1.00;18453;296;7505293;-31
2023/06/09 04:31:58;;;;;;;10.70;9.60;;;;;;;-128.00;-1.00;-1.00;18469;297;7504399;-35
2023/06/09 04:34:27;;;;;;;12.60;9.20;;;;;;;-128.00;-1.00;-1.00;18467;297;7505784;-32
2023/06/09 04:36:55;;;;;;;9.00;8.10;;;;;;;-128.00;-1.00;-1.00;18443;296;7504708;-35
2023/06/09 04:39:21;;;;;;;15.30;6.80;;;;;;;-128.00;-1.00;-1.00;18437;297;7506107;-31
2023/06/09 04:41:47;;;;;;;8.70;7.90;;;;;;;-128.00;-1.00;-1.00;18469;341;7504895;-33
2023/06/09 04:44:13;;;;;;;7.80;6.30;;;;;;;-128.00;-1.00;-1.00;18460;297;7505091;-31
2023/06/09 04:46:40;;;;;;;9.50;7.00;;;;;;;-128.00;-1.00;-1.00;18463;297;7506272;-35
2023/06/09 04:49:09;;;;;;;9.30;7.80;;;;;;;-128.00;-1.00;-1.00;18475;297;7504365;-32
2023/06/09 04:51:41;;;;;;;8.40;7.70;;;;;;;-128.00;-1.00;-1.00;18471;285;7504525;-36
2023/06/09 04:54:10;;;;;;;12.60;9.50;;;;;;;-128.00;-1.00;-1.00;18459;331;7504080;-36
2023/06/09 04:56:36;;;;;;;14.30;9.10;;;;;;;-128.00;-1.00;-1.00;18460;297;7506325;-33
2023/06/09 04:59:04;;;;;;;7.90;7.20;;;;;;;-128.00;-1.00;-1.00;18467;297;7504634;-32
2023/06/09 05:01:30;;;;;;;16.60;8.50;;;;;;;-128.00;-1.00;-1.00;18448;289;7504844;-36
2023/06/09 05:03:56;;;;;;;11.70;9.20;;;;;;;-128.00;-1.00;-1.00;18482;297;7504497;-36
2023/06/09 05:06:22;;;;;;;11.00;8.00;;;;;;;-128.00;-1.00;-1.00;18459;297;7506282;-36
2023/06/09 05:08:50;;;;;;;9.10;8.20;;;;;;;-128.00;-1.00;-1.00;18853;297;7504353;-32
2023/06/09 05:11:16;;;;;;;8.50;7.40;;;;;;;-128.00;-1.00;-1.00;18461;296;7506413;-32
2023/06/09 05:13:42;;;;;;;11.10;9.60;;;;;;;-128.00;-1.00;-1.00;18477;285;7504393;-31
2023/06/09 05:16:08;;;;;;;11.40;10.00;;;;;;;-128.00;-1.00;-1.00;18856;297;7505354;-35
2023/06/09 05:18:34;;;;;;;10.00;8.50;;;;;;;-128.00;-1.00;-1.00;18857;349;7505118;-36
2023/06/09 05:21:00;;;;;;;15.70;11.10;;;;;;;-128.00;-1.00;-1.00;18864;349;7504369;-36
2023/06/09 05:23:26;;;;;;;13.70;10.70;;;;;;;-128.00;-1.00;-1.00;18862;285;7505270;-35
2023/06/09 05:25:53;;;;;;;9.10;8.00;;;;;;;-128.00;-1.00;-1.00;18883;301;7504339;-35
2023/06/09 05:28:19;;;;;;;13.00;11.00;;;;;;;-128.00;-1.00;-1.00;18883;296;7504897;-32
2023/06/09 05:30:45;;;;;;;12.80;9.60;;;;;;;-128.00;-1.00;-1.00;18868;349;7505053;-31
2023/06/09 05:33:11;;;;;;;10.60;9.00;;;;;;;-128.00;-1.00;-1.00;18884;289;7505162;-32
2023/06/09 05:35:38;;;;;;;10.60;9.60;;;;;;;-128.00;-1.00;-1.00;18873;285;7505007;-31
2023/06/09 05:38:04;;;;;;;11.70;9.60;;;;;;;-128.00;-1.00;-1.00;18865;296;7504951;-33
2023/06/09 05:40:30;;;;;;;11.70;9.80;;;;;;;-128.00;-1.00;-1.00;18845;310;7505228;-31
2023/06/09 05:42:57;;;;;;;11.00;8.80;;;;;;;-128.00;-1.00;-1.00;18886;289;7505134;-32
2023/06/09 05:45:23;;;;;;;25.00;13.00;;;;;;;-128.00;-1.00;-1.00;18890;297;7505408;-35
2023/06/09 05:47:50;;;;;;;12.80;8.30;;;;;;;-128.00;-1.00;-1.00;18858;285;7504561;-35
2023/06/09 05:50:16;;;;;;;10.60;9.10;;;;;;;-128.00;-1.00;-1.00;18459;296;7504546;-31
2023/06/09 05:52:42;;;;;;;8.30;7.40;;;;;;;-128.00;-1.00;-1.00;18451;289;7504278;-31
2023/06/09 05:55:08;;;;;;;9.20;8.40;;;;;;;-128.00;-1.00;-1.00;18452;348;7504154;-35
2023/06/09 05:57:34;;;;;;;12.80;9.50;;;;;;;-128.00;-1.00;-1.00;18441;297;7504358;-31
2023/06/09 06:00:07;;;;;;;14.90;7.80;;;;;;;-128.00;-1.00;-1.00;18473;308;7504556;-31
2023/06/09 06:02:32;;;;;;;10.90;9.80;;;;;;;-128.00;-1.00;-1.00;18465;285;7504131;-32
2023/06/09 06:04:58;;;;;;;11.00;8.10;;;;;;;-128.00;-1.00;-1.00;18475;296;7504300;-32
2023/06/09 06:07:23;;;;;;;12.00;9.50;;;;;;;-128.00;-1.00;-1.00;18480;297;7504110;-31
2023/06/09 06:09:50;;;;;;;15.10;11.30;;;;;;;-128.00;-1.00;-1.00;18857;285;7504481;-32
2023/06/09 06:12:16;;;;;;;12.90;11.30;;;;;;;-128.00;-1.00;-1.00;18865;285;7504629;-32
2023/06/09 06:14:42;;;;;;;14.00;11.50;;;;;;;-128.00;-1.00;-1.00;18879;296;7504304;-32
2023/06/09 06:17:08;;;;;;;16.70;12.70;;;;;;;-128.00;-1.00;-1.00;18872;285;7505408;-36
2023/06/09 06:19:34;;;;;;;17.70;11.50;;;;;;;-128.00;-1.00;-1.00;18849;285;7505145;-36
2023/06/09 06:22:00;;;;;;;17.80;14.00;;;;;;;-128.00;-1.00;-1.00;18846;289;7504979;-36
2023/06/09 06:24:26;;;;;;;15.80;13.70;;;;;;;-128.00;-1.00;-1.00;18860;289;7504373;-35
2023/06/09 06:26:53;;;;;;;12.70;10.70;;;;;;;-128.00;-1.00;-1.00;18843;289;7504601;-35
2023/06/09 06:29:19;;;;;;;24.50;13.70;;;;;;;-128.00;-1.00;-1.00;18865;289;7504604;-35
2023/06/09 06:31:48;;;;;;;23.20;13.10;;;;;;;-128.00;-1.00;-1.00;18860;297;7504776;-32
2023/06/09 06:34:14;;;;;;;12.60;9.40;;;;;;;-128.00;-1.00;-1.00;18465;308;7504365;-36
2023/06/09 06:36:40;;;;;;;16.10;11.20;;;;;;;-128.00;-1.00;-1.00;18494;298;7504836;-33
2023/06/09 06:39:06;;;;;;;10.80;9.10;;;;;;;-128.00;-1.00;-1.00;18449;285;7504528;-36
2023/06/09 06:41:33;;;;;;;12.80;11.20;;;;;;;-128.00;-1.00;-1.00;18454;285;7506038;-35
2023/06/09 06:43:58;;;;;;;14.00;11.40;;;;;;;-128.00;-1.00;-1.00;18434;320;7506444;-32
2023/06/09 06:46:25;;;;;;;9.60;8.70;;;;;;;-128.00;-1.00;-1.00;18873;297;7505357;-36
2023/06/09 06:48:51;;;;;;;10.90;9.80;;;;;;;-128.00;-1.00;-1.00;18879;285;7504615;-36
2023/06/09 06:51:17;;;;;;;18.20;12.10;;;;;;;-128.00;-1.00;-1.00;18852;297;7505794;-33
2023/06/09 06:53:43;;;;;;;12.40;11.10;;;;;;;-128.00;-1.00;-1.00;18840;341;7504405;-31
2023/06/09 06:56:10;;;;;;;13.10;11.60;;;;;;;-128.00;-1.00;-1.00;18873;297;7504546;-32
2023/06/09 06:58:36;;;;;;;9.10;8.00;;;;;;;-128.00;-1.00;-1.00;18849;297;7504811;-32
2023/06/09 07:01:03;;;;;;;15.50;8.80;;;;;;;-128.00;-1.00;-1.00;18855;297;7504528;-36
2023/06/09 07:03:28;;;;;;;22.90;10.90;;;;;;;-128.00;-1.00;-1.00;18466;296;7504771;-32
2023/06/09 07:05:54;;;;;;;13.10;11.50;;;;;;;-128.00;-1.00;-1.00;18457;285;7505125;-32
2023/06/09 07:08:20;;;;;;;23.80;10.20;;;;;;;-128.00;-1.00;-1.00;18488;297;7504868;-32
2023/06/09 07:10:46;;;;;;;11.70;8.40;;;;;;;-128.00;-1.00;-1.00;18452;348;7504744;-32
2023/06/09 07:13:12;;;;;;;12.20;10.50;;;;;;;-128.00;-1.00;-1.00;18888;322;7504822;-32
2023/06/09 07:15:38;;;;;;;13.80;10.40;;;;;;;-128.00;-1.00;-1.00;18900;296;7504682;-35
2023/06/09 07:18:06;;;;;;;16.60;12.00;;;;;;;-128.00;-1.00;-1.00;18890;342;7505047;-35
2023/06/09 07:20:32;;;;;;;14.40;11.10;;;;;;;-128.00;-1.00;-1.00;18450;297;7504946;-35
2023/06/09 07:22:59;;;;;;;16.80;11.70;;;;;;;-128.00;-1.00;-1.00;18857;336;7505348;-36
2023/06/09 07:25:25;;;;;;;9.30;8.00;;;;;;;-128.00;-1.00;-1.00;18477;285;7505574;-36
2023/06/09 07:27:51;;;;;;;10.20;8.50;;;;;;;-128.00;-1.00;-1.00;18474;297;7505747;-35
2023/06/09 07:30:17;;;;;;;14.30;11.10;;;;;;;-128.00;-1.00;-1.00;18471;289;7504714;-36
2023/06/09 07:32:43;;;;;;;9.50;8.50;;;;;;;-128.00;-1.00;-1.00;18458;337;7504528;-35
2023/06/09 07:35:13;;;;;;;8.90;8.20;;;;;;;-128.00;-1.00;-1.00;18458;297;7505107;-31
2023/06/09 07:37:40;;;;;;;9.50;8.50;;;;;;;-128.00;-1.00;-1.00;18473;296;7504325;-32
2023/06/09 07:40:07;;;;;;;11.40;9.40;;;;;;;-128.00;-1.00;-1.00;18438;297;7506237;-32
2023/06/09 07:42:33;;;;;;;15.00;9.80;;;;;;;-128.00;-1.00;-1.00;18471;289;7504760;-35
2023/06/09 07:45:00;;;;;;;8.10;7.30;;;;;;;-128.00;-1.00;-1.00;18863;345;7504244;-35
2023/06/09 07:47:26;;;;;;;11.60;9.50;;;;;;;-128.00;-1.00;-1.00;18889;289;7504571;-35
2023/06/09 07:49:52;;;;;;;12.50;11.00;;;;;;;-128.00;-1.00;-1.00;18876;297;7504245;-35
2023/06/09 07:52:18;;;;;;;12.30;9.90;;;;;;;-128.00;-1.00;-1.00;18875;297;7504972;-33
2023/06/09 07:54:44;;;;;;;10.70;8.70;;;;;;;-128.00;-1.00;-1.00;18873;285;7504042;-32
2023/06/09 07:57:11;;;;;;;10.40;7.10;;;;;;;-128.00;-1.00;-1.00;18850;297;7504260;-32
2023/06/09 07:59:37;;;;;;;10.00;9.00;;;;;;;-128.00;-1.00;-1.00;18860;297;7504398;-31
2023/06/09 08:02:04;;;;;;;10.60;8.90;;;;;;;-128.00;-1.00;-1.00;18862;320;7505149;-35
2023/06/09 08:04:30;;;;;;;11.40;10.00;;;;;;;-128.00;-1.00;-1.00;18856;297;7504669;-35
2023/06/09 08:06:59;;;;;;;9.10;8.10;;;;;;;-128.00;-1.00;-1.00;18859;297;7504942;-35
2023/06/09 08:09:25;;;;;;;7.10;6.50;;;;;;;-128.00;-1.00;-1.00;18436;297;7504731;-31
2023/06/09 08:11:52;;;;;;;15.50;8.00;;;;;;;-128.00;-1.00;-1.00;18477;296;7507074;-32
2023/06/09 08:14:18;;;;;;;11.30;6.50;;;;;;;-128.00;-1.00;-1.00;18449;341;7506012;-32
2023/06/09 08:16:44;;;;;;;10.50;6.10;;;;;;;-128.00;-1.00;-1.00;18471;297;7506215;-36
2023/06/09 08:19:09;;;;;;;10.50;8.30;;;;;;;-128.00;-1.00;-1.00;18447;297;7506650;-31
2023/06/09 08:21:42;;;;;;;8.00;6.70;;;;;;;-128.00;-1.00;-1.00;18445;296;7505174;-35
2023/06/09 08:24:08;;;;;;;7.80;7.00;;;;;;;-128.00;-1.00;-1.00;18465;308;7505051;-32
2023/06/09 08:26:34;;;;;;;7.30;6.60;;;;;;;-128.00;-1.00;-1.00;18456;348;7506141;-32
2023/06/09 08:29:04;;;;;;;6.50;6.00;;;;;;;-128.00;-1.00;-1.00;18467;297;7506520;-36
2023/06/09 08:31:31;;;;;;;7.00;5.90;;;;;;;-128.00;-1.00;-1.00;18477;296;7505256;-36
2023/06/09 08:33:57;;;;;;;5.30;4.80;;;;;;;-128.00;-1.00;-1.00;18469;296;7505029;-32
2023/06/09 08:36:23;;;;;;;7.80;7.10;;;;;;;-128.00;-1.00;-1.00;18874;297;7504542;-36
2023/06/09 08:38:49;;;;;;;10.50;7.50;;;;;;;-128.00;-1.00;-1.00;18860;297;7504937;-37
2023/06/09 08:41:15;;;;;;;15.40;10.90;;;;;;;-128.00;-1.00;-1.00;18890;297;7504297;-32
2023/06/09 08:43:42;;;;;;;11.90;10.20;;;;;;;-128.00;-1.00;-1.00;18879;296;7504828;-36
2023/06/09 08:46:10;;;;;;;21.40;13.70;;;;;;;-128.00;-1.00;-1.00;18843;297;7504382;-32
2023/06/09 08:48:38;;;;;;;9.20;8.30;;;;;;;-128.00;-1.00;-1.00;18466;297;7504664;-32
2023/06/09 08:51:04;;;;;;;12.60;9.00;;;;;;;-128.00;-1.00;-1.00;18478;349;7506162;-32
2023/06/09 08:53:30;;;;;;;10.90;8.60;;;;;;;-128.00;-1.00;-1.00;18465;320;7505543;-32
2023/06/09 08:55:55;;;;;;;8.90;8.10;;;;;;;-128.00;-1.00;-1.00;18469;289;7505113;-36
2023/06/09 08:58:24;;;;;;;9.80;7.50;;;;;;;-128.00;-1.00;-1.00;18475;348;7504454;-35
2023/06/09 09:00:50;;;;;;;6.50;5.90;;;;;;;-128.00;-1.00;-1.00;18466;297;7505158;-35
2023/06/09 09:03:16;;;;;;;6.60;5.90;;;;;;;-128.00;-1.00;-1.00;18462;296;7504384;-35
2023/06/09 09:05:43;;;;;;;8.10;5.90;;;;;;;-128.00;-1.00;-1.00;18484;310;7504944;-36
2023/06/09 09:08:10;;;;;;;7.10;6.40;;;;;;;-128.00;-1.00;-1.00;18437;297;7505590;-32
2023/06/09 09:10:38;;;;;;;7.90;6.00;;;;;;;-128.00;-1.00;-1.00;18459;320;7504610;-35
2023/06/09 09:13:06;;;;;;;6.50;6.00;;;;;;;-128.00;-1.00;-1.00;18460;312;7506486;-35
2023/06/09 09:15:32;;;;;;;10.10;6.20;;;;;;;-128.00;-1.00;-1.00;17978;297;7504315;-36
2023/06/09 09:17:57;;;;;;;8.70;7.80;;;;;;;-128.00;-1.00;-1.00;18460;296;7504681;-32
2023/06/09 09:20:34;;;;;;;7.90;7.20;;;;;;;-128.00;-1.00;-1.00;18852;289;7504725;-35
2023/06/09 09:23:00;;;;;;;6.00;5.50;;;;;;;-128.00;-1.00;-1.00;18449;297;7506298;-35
2023/06/09 09:25:26;;;;;;;5.80;5.20;;;;;;;-128.00;-1.00;-1.00;18463;296;7504742;-35
2023/06/09 09:28:05;;;;;;;5.70;5.20;;;;;;;-128.00;-1.00;-1.00;18477;289;7505702;-32
2023/06/09 09:30:44;;;;;;;6.00;5.30;;;;;;;-128.00;-1.00;-1.00;18452;301;7504620;-35
2023/06/09 09:33:11;;;;;;;6.60;5.40;;;;;;;-128.00;-1.00;-1.00;18456;296;7504600;-31
2023/06/09 09:35:43;;;;;;;7.20;5.50;;;;;;;-128.00;-1.00;-1.00;18447;296;7504881;-35
2023/06/09 09:38:16;;;;;;;11.90;6.10;;;;;;;-128.00;-1.00;-1.00;18472;285;7504314;-31
2023/06/09 09:40:43;;;;;;;5.60;5.10;;;;;;;-128.00;-1.00;-1.00;18482;324;7504860;-32
2023/06/09 09:43:12;;;;;;;4.80;4.30;;;;;;;-128.00;-1.00;-1.00;18461;289;7504568;-32
2023/06/09 09:45:39;;;;;;;5.70;5.30;;;;;;;-128.00;-1.00;-1.00;18457;297;7505521;-35
2023/06/09 09:48:11;;;;;;;7.60;6.20;;;;;;;-128.00;-1.00;-1.00;18446;285;7505818;-32
2023/06/09 09:50:37;;;;;;;6.30;5.70;;;;;;;-128.00;-1.00;-1.00;18452;297;7504765;-35
2023/06/09 09:53:04;;;;;;;6.90;6.30;;;;;;;-128.00;-1.00;-1.00;18459;285;7505187;-35
2023/06/09 09:55:32;;;;;;;6.40;5.80;;;;;;;-128.00;-1.00;-1.00;18458;297;7504347;-35
2023/06/09 10:15:34;;;;;;;9.00;5.80;;;;;;;-97.65;11.69;19833.04;19548;296;7903090;-35
2023/06/09 10:18:00;;;;;;;7.70;6.90;;;;;;;-128.00;-1.00;-1.00;18470;288;7506806;-31
2023/06/09 10:20:26;;;;;;;12.20;6.00;;;;;;;-128.00;-1.00;-1.00;18909;294;7504530;-32
2023/06/09 10:22:53;;;;;;;8.40;5.50;;;;;;;-128.00;-1.00;-1.00;18888;307;7504751;-36
2023/06/09 10:25:20;;;;;;;6.60;6.00;;;;;;;-128.00;-1.00;-1.00;18887;294;7505442;-31
2023/06/09 10:27:46;;;;;;;16.30;4.90;;;;;;;-128.00;-1.00;-1.00;18470;296;7507106;-31
2023/06/09 10:30:14;;;;;;;8.80;6.00;;;;;;;-128.00;-1.00;-1.00;18476;295;7504752;-35
2023/06/09 10:32:46;;;;;;;7.30;6.50;;;;;;;-128.00;-1.00;-1.00;18465;295;7505839;-35
2023/06/09 10:35:16;;;;;;;7.00;5.30;;;;;;;-128.00;-1.00;-1.00;26599;343;7504587;-31
2023/06/09 10:37:41;;;;;;;5.30;4.70;;;;;;;-128.00;-1.00;-1.00;18483;294;7504739;-35
2023/06/09 10:40:31;;;;;;;5.70;5.10;;;;;;;-128.00;-1.00;-1.00;18491;295;7506210;-35
2023/06/09 10:43:15;;;;;;;4.10;3.80;;;;;;;-128.00;-1.00;-1.00;18482;287;7506049;-35
2023/06/09 10:45:50;;;;;;;6.20;5.10;;;;;;;-128.00;-1.00;-1.00;18474;294;7506066;-35
2023/06/09 10:48:50;;;;;;;8.40;6.00;;;;;;;-128.00;-1.00;-1.00;18459;319;7506557;-32
2023/06/09 10:51:36;;;;;;;6.60;6.00;;;;;;;-128.00;-1.00;-1.00;18472;295;7504758;-36
2023/06/09 10:54:16;;;;;;;11.60;7.90;;;;;;;-128.00;-1.00;-1.00;18481;287;7504508;-33
2023/06/09 10:56:46;;;;;;;10.00;6.50;;;;;;;-128.00;-1.00;-1.00;18477;295;7506545;-32
2023/06/09 10:59:44;;;;;;;7.40;6.50;;;;;;;-128.00;-1.00;-1.00;18486;294;7504847;-33
2023/06/09 11:02:19;;;;;;;5.40;4.90;;;;;;;-128.00;-1.00;-1.00;18470;295;7506349;-32
2023/06/09 11:04:49;;;;;;;5.10;4.60;;;;;;;-128.00;-1.00;-1.00;18497;295;7505538;-32
2023/06/09 11:07:27;;;;;;;8.50;6.40;;;;;;;-128.00;-1.00;-1.00;18489;295;7505125;-32
2023/06/09 11:10:29;;;;;;;12.40;5.80;;;;;;;-128.00;-1.00;-1.00;18469;295;7504265;-36
2023/06/09 11:12:55;;;;;;;10.40;6.90;;;;;;;-128.00;-1.00;-1.00;18510;295;7504386;-31
2023/06/09 11:15:21;;;;;;;6.30;5.80;;;;;;;-128.00;-1.00;-1.00;18463;295;7504317;-36
2023/06/09 11:17:49;;;;;;;10.20;6.60;;;;;;;-128.00;-1.00;-1.00;18469;295;7506744;-37
2023/06/09 11:20:20;;;;;;;9.00;7.80;;;;;;;-128.00;-1.00;-1.00;18486;295;7506212;-32
2023/06/09 11:23:03;;;;;;;8.30;7.50;;;;;;;-128.00;-1.00;-1.00;18477;303;7504734;-36
2023/06/09 11:25:33;;;;;;;10.30;8.10;;;;;;;-128.00;-1.00;-1.00;18478;295;7505216;-38
2023/06/09 11:28:20;;;;;;;7.00;6.30;;;;;;;-128.00;-1.00;-1.00;18483;336;7504487;-36
2023/06/09 11:30:58;;;;;;;10.00;9.20;;;;;;;-128.00;-1.00;-1.00;18487;295;7505767;-33
2023/06/09 11:33:40;;;;;;;11.70;9.30;;;;;;;-128.00;-1.00;-1.00;18449;295;7504362;-36
2023/06/09 11:36:06;;;;;;;14.60;8.80;;;;;;;-128.00;-1.00;-1.00;18468;295;7505777;-34
2023/06/09 11:38:32;;;;;;;13.20;11.40;;;;;;;-128.00;-1.00;-1.00;18461;295;7504421;-36
2023/06/09 11:40:58;;;;;;;16.90;11.40;;;;;;;-128.00;-1.00;-1.00;18892;295;7505119;-34
2023/06/09 11:43:25;;;;;;;18.90;13.00;;;;;;;-128.00;-1.00;-1.00;18873;347;7505098;-33
2023/06/09 11:46:00;;;;;;;15.60;10.80;;;;;;;-128.00;-1.00;-1.00;18458;295;7504798;-37
2023/06/09 11:48:25;;;;;;;10.80;9.70;;;;;;;-128.00;-1.00;-1.00;18454;306;7504357;-37
2023/06/09 11:50:51;;;;;;;12.60;10.70;;;;;;;-128.00;-1.00;-1.00;18881;330;7504367;-37
2023/06/09 11:53:21;;;;;;;11.80;9.80;;;;;;;-128.00;-1.00;-1.00;18876;319;7504650;-33
2023/06/09 11:55:47;;;;;;;13.00;9.70;;;;;;;-128.00;-1.00;-1.00;18447;347;7504715;-34
2023/06/09 11:58:15;;;;;;;7.50;6.90;;;;;;;-128.00;-1.00;-1.00;18476;295;7504850;-33
2023/06/09 12:00:42;;;;;;;9.50;7.70;;;;;;;-128.00;-1.00;-1.00;18496;295;7506018;-37
2023/06/09 12:03:09;;;;;;;7.20;6.60;;;;;;;-128.00;-1.00;-1.00;18463;295;7504949;-37
2023/06/09 12:05:35;;;;;;;8.40;7.60;;;;;;;-128.00;-1.00;-1.00;18472;295;7504447;-36
2023/06/09 12:08:01;;;;;;;9.60;7.50;;;;;;;-128.00;-1.00;-1.00;18473;348;7506317;-33
2023/06/09 12:10:27;;;;;;;6.50;5.90;;;;;;;-128.00;-1.00;-1.00;18477;295;7505921;-33
2023/06/09 12:12:55;;;;;;;9.40;8.40;;;;;;;-128.00;-1.00;-1.00;18478;295;7506022;-36
2023/06/09 12:15:21;;;;;;;11.70;7.60;;;;;;;-128.00;-1.00;-1.00;18502;295;7504296;-34
2023/06/09 12:17:51;;;;;;;8.80;7.40;;;;;;;-128.00;-1.00;-1.00;18459;295;7504498;-36
2023/06/09 12:20:23;;;;;;;7.40;6.60;;;;;;;-128.00;-1.00;-1.00;18483;295;7504729;-37
2023/06/09 12:22:49;;;;;;;6.90;6.10;;;;;;;-128.00;-1.00;-1.00;18493;340;7504290;-34
2023/06/09 12:25:26;;;;;;;22.10;5.70;;;;;;;-128.00;-1.00;-1.00;18464;347;7506947;-33
2023/06/09 12:27:57;;;;;;;6.10;5.60;;;;;;;-128.00;-1.00;-1.00;18479;287;7504670;-33